sensor_id;sensor_type;location;lat;lon;timestamp;temperature;humidity
44121;DHT22;29783;52.504;13.478;2024-01-07T00:00:02;-3276.20;75.70
44121;DHT22;29783;52.504;13.478;2024-01-07T00:02:27;-3276.30;75.90
44121;DHT22;29783;52.504;13.478;2024-01-07T00:04:53;-3276.30;76.00
44121;DHT22;29783;52.504;13.478;2024-01-07T00:07:19;-3276.30;76.20
44121;DHT22;29783;52.504;13.478;2024-01-07T00:09:46;-3276.20;76.10
44121;DHT22;29783;52.504;13.478;2024-01-07T00:12:11;-3276.20;76.30
44121;DHT22;29783;52.504;13.478;2024-01-07T00:14:37;-3276.30;76.00
44121;DHT22;29783;52.504;13.478;2024-01-07T00:17:03;-3276.30;75.80
44121;DHT22;29783;52.504;13.478;2024-01-07T00:19:28;-3276.20;75.60
44121;DHT22;29783;52.504;13.478;2024-01-07T00:21:57;-3276.20;75.80
44121;DHT22;29783;52.504;13.478;2024-01-07T00:24:22;-3276.10;75.80
44121;DHT22;29783;52.504;13.478;2024-01-07T00:26:51;-3276.10;76.10
44121;DHT22;29783;52.504;13.478;2024-01-07T00:29:17;-3276.20;76.00
44121;DHT22;29783;52.504;13.478;2024-01-07T00:31:42;-3276.20;76.00
44121;DHT22;29783;52.504;13.478;2024-01-07T00:34:08;-3276.20;76.10
44121;DHT22;29783;52.504;13.478;2024-01-07T00:36:33;-3276.20;76.30
44121;DHT22;29783;52.504;13.478;2024-01-07T00:38:59;-3276.10;76.40
44121;DHT22;29783;52.504;13.478;2024-01-07T00:41:25;-3276.10;76.50
44121;DHT22;29783;52.504;13.478;2024-01-07T00:43:50;-3276.10;76.40
44121;DHT22;29783;52.504;13.478;2024-01-07T00:46:16;-3276.00;75.90
44121;DHT22;29783;52.504;13.478;2024-01-07T00:48:41;-3276.00;75.80
44121;DHT22;29783;52.504;13.478;2024-01-07T00:51:07;-3276.00;75.40
44121;DHT22;29783;52.504;13.478;2024-01-07T00:53:32;-3275.90;75.00
44121;DHT22;29783;52.504;13.478;2024-01-07T00:55:58;-3275.90;74.70
44121;DHT22;29783;52.504;13.478;2024-01-07T00:58:24;-3275.90;74.40
44121;DHT22;29783;52.504;13.478;2024-01-07T01:00:50;-3275.90;74.40
44121;DHT22;29783;52.504;13.478;2024-01-07T01:03:16;-3275.90;74.40
44121;DHT22;29783;52.504;13.478;2024-01-07T01:05:42;-3275.80;74.20
44121;DHT22;29783;52.504;13.478;2024-01-07T01:08:07;-3275.90;74.60
44121;DHT22;29783;52.504;13.478;2024-01-07T01:10:33;-3275.80;74.40
44121;DHT22;29783;52.504;13.478;2024-01-07T01:12:59;-3275.80;74.60
44121;DHT22;29783;52.504;13.478;2024-01-07T01:15:24;-3275.80;74.20
44121;DHT22;29783;52.504;13.478;2024-01-07T01:17:50;-3275.80;74.20
44121;DHT22;29783;52.504;13.478;2024-01-07T01:20:15;-3275.70;74.20
44121;DHT22;29783;52.504;13.478;2024-01-07T01:22:41;-3275.70;73.70
44121;DHT22;29783;52.504;13.478;2024-01-07T01:25:07;-3275.70;74.30
44121;DHT22;29783;52.504;13.478;2024-01-07T01:27:33;-3275.70;73.60
44121;DHT22;29783;52.504;13.478;2024-01-07T01:29:58;-3275.70;73.40
44121;DHT22;29783;52.504;13.478;2024-01-07T01:32:24;-3275.60;73.80
44121;DHT22;29783;52.504;13.478;2024-01-07T01:34:49;-3275.60;74.20
44121;DHT22;29783;52.504;13.478;2024-01-07T01:37:15;-3275.70;74.20
44121;DHT22;29783;52.504;13.478;2024-01-07T01:39:41;-3275.70;73.70
44121;DHT22;29783;52.504;13.478;2024-01-07T01:42:07;-3275.70;73.30
44121;DHT22;29783;52.504;13.478;2024-01-07T01:44:33;-3275.70;73.70
44121;DHT22;29783;52.504;13.478;2024-01-07T01:46:59;-3275.60;73.20
44121;DHT22;29783;52.504;13.478;2024-01-07T01:49:27;-3275.50;73.20
44121;DHT22;29783;52.504;13.478;2024-01-07T01:51:52;-3275.50;73.30
44121;DHT22;29783;52.504;13.478;2024-01-07T01:54:19;-3275.60;73.20
44121;DHT22;29783;52.504;13.478;2024-01-07T01:56:46;-3275.60;73.30
44121;DHT22;29783;52.504;13.478;2024-01-07T01:59:12;-3275.50;73.10
44121;DHT22;29783;52.504;13.478;2024-01-07T02:01:39;-3275.50;73.70
44121;DHT22;29783;52.504;13.478;2024-01-07T02:04:04;-3275.40;73.40
44121;DHT22;29783;52.504;13.478;2024-01-07T02:06:30;-3275.40;73.80
44121;DHT22;29783;52.504;13.478;2024-01-07T02:08:56;-3275.40;73.70
44121;DHT22;29783;52.504;13.478;2024-01-07T02:11:22;-3275.40;74.10
44121;DHT22;29783;52.504;13.478;2024-01-07T02:13:48;-3275.30;73.80
44121;DHT22;29783;52.504;13.478;2024-01-07T02:16:14;-3275.30;73.50
44121;DHT22;29783;52.504;13.478;2024-01-07T02:18:45;-3275.20;73.70
44121;DHT22;29783;52.504;13.478;2024-01-07T02:21:13;-3275.20;74.00
44121;DHT22;29783;52.504;13.478;2024-01-07T02:23:39;-3275.10;73.90
44121;DHT22;29783;52.504;13.478;2024-01-07T02:26:05;-3275.10;74.10
44121;DHT22;29783;52.504;13.478;2024-01-07T02:28:32;-3275.00;74.30
44121;DHT22;29783;52.504;13.478;2024-01-07T02:30:58;-3275.00;74.90
44121;DHT22;29783;52.504;13.478;2024-01-07T02:33:24;-3274.90;75.00
44121;DHT22;29783;52.504;13.478;2024-01-07T02:35:50;-3274.90;74.40
44121;DHT22;29783;52.504;13.478;2024-01-07T02:38:15;-3274.80;74.40
44121;DHT22;29783;52.504;13.478;2024-01-07T02:40:41;-3274.80;75.10
44121;DHT22;29783;52.504;13.478;2024-01-07T02:43:08;-3274.70;74.80
44121;DHT22;29783;52.504;13.478;2024-01-07T02:45:33;-3274.70;75.10
44121;DHT22;29783;52.504;13.478;2024-01-07T02:47:59;-3274.60;75.10
44121;DHT22;29783;52.504;13.478;2024-01-07T02:50:25;-3274.50;75.20
44121;DHT22;29783;52.504;13.478;2024-01-07T02:52:50;-3274.50;75.30
44121;DHT22;29783;52.504;13.478;2024-01-07T02:55:16;-3274.40;75.70
44121;DHT22;29783;52.504;13.478;2024-01-07T02:57:41;-3274.40;75.60
44121;DHT22;29783;52.504;13.478;2024-01-07T03:00:07;-3274.40;75.60
44121;DHT22;29783;52.504;13.478;2024-01-07T03:02:33;-3274.40;75.70
44121;DHT22;29783;52.504;13.478;2024-01-07T03:04:59;-3274.30;76.10
44121;DHT22;29783;52.504;13.478;2024-01-07T03:07:25;-3274.30;76.30
44121;DHT22;29783;52.504;13.478;2024-01-07T03:09:51;-3274.20;76.20
44121;DHT22;29783;52.504;13.478;2024-01-07T03:12:17;-3274.20;76.40
44121;DHT22;29783;52.504;13.478;2024-01-07T03:14:43;-3274.20;76.70
44121;DHT22;29783;52.504;13.478;2024-01-07T03:17:10;-3274.10;77.00
44121;DHT22;29783;52.504;13.478;2024-01-07T03:19:37;-3274.10;76.60
44121;DHT22;29783;52.504;13.478;2024-01-07T03:22:03;-3274.10;76.40
44121;DHT22;29783;52.504;13.478;2024-01-07T03:24:29;-3274.10;76.60
44121;DHT22;29783;52.504;13.478;2024-01-07T03:26:54;-3274.10;76.50
44121;DHT22;29783;52.504;13.478;2024-01-07T03:29:20;-3274.10;76.60
44121;DHT22;29783;52.504;13.478;2024-01-07T03:31:45;-3274.10;76.50
44121;DHT22;29783;52.504;13.478;2024-01-07T03:34:11;-3274.10;76.40
44121;DHT22;29783;52.504;13.478;2024-01-07T03:36:37;-3274.00;76.60
44121;DHT22;29783;52.504;13.478;2024-01-07T03:39:03;-3274.00;76.60
44121;DHT22;29783;52.504;13.478;2024-01-07T03:41:28;-3274.00;76.50
44121;DHT22;29783;52.504;13.478;2024-01-07T03:43:54;-3274.00;76.50
44121;DHT22;29783;52.504;13.478;2024-01-07T03:46:20;-3274.00;76.70
44121;DHT22;29783;52.504;13.478;2024-01-07T03:48:46;-3274.00;76.90
44121;DHT22;29783;52.504;13.478;2024-01-07T03:51:11;-3273.90;77.30
44121;DHT22;29783;52.504;13.478;2024-01-07T03:53:37;-3274.00;76.80
44121;DHT22;29783;52.504;13.478;2024-01-07T03:56:03;-3274.00;76.80
44121;DHT22;29783;52.504;13.478;2024-01-07T03:58:28;-3273.90;76.80
44121;DHT22;29783;52.504;13.478;2024-01-07T04:00:54;-3273.90;76.60
44121;DHT22;29783;52.504;13.478;2024-01-07T04:03:20;-3273.90;76.50
44121;DHT22;29783;52.504;13.478;2024-01-07T04:05:45;-3273.90;76.30
44121;DHT22;29783;52.504;13.478;2024-01-07T04:08:11;-3274.00;76.40
44121;DHT22;29783;52.504;13.478;2024-01-07T04:10:38;-3273.90;75.70
44121;DHT22;29783;52.504;13.478;2024-01-07T04:13:04;-3273.90;76.00
44121;DHT22;29783;52.504;13.478;2024-01-07T04:15:30;-3273.80;76.10
44121;DHT22;29783;52.504;13.478;2024-01-07T04:17:55;-3273.80;76.10
44121;DHT22;29783;52.504;13.478;2024-01-07T04:20:21;-3273.90;75.90
44121;DHT22;29783;52.504;13.478;2024-01-07T04:22:47;-3273.90;75.80
44121;DHT22;29783;52.504;13.478;2024-01-07T04:25:13;-3273.80;75.90
44121;DHT22;29783;52.504;13.478;2024-01-07T04:27:38;-3273.80;75.90
44121;DHT22;29783;52.504;13.478;2024-01-07T04:30:05;-3273.80;75.90
44121;DHT22;29783;52.504;13.478;2024-01-07T04:32:31;-3273.80;76.20
44121;DHT22;29783;52.504;13.478;2024-01-07T04:34:57;-3273.70;76.60
44121;DHT22;29783;52.504;13.478;2024-01-07T04:37:26;-3273.70;76.60
44121;DHT22;29783;52.504;13.478;2024-01-07T04:39:51;-3273.70;76.40
44121;DHT22;29783;52.504;13.478;2024-01-07T04:42:18;-3273.70;76.30
44121;DHT22;29783;52.504;13.478;2024-01-07T04:44:43;-3273.70;76.30
44121;DHT22;29783;52.504;13.478;2024-01-07T04:47:28;-3273.70;76.10
44121;DHT22;29783;52.504;13.478;2024-01-07T04:49:55;-3273.70;76.10
44121;DHT22;29783;52.504;13.478;2024-01-07T04:52:24;-3273.70;76.50
44121;DHT22;29783;52.504;13.478;2024-01-07T04:54:51;-3273.60;76.80
44121;DHT22;29783;52.504;13.478;2024-01-07T04:57:17;-3273.60;76.90
44121;DHT22;29783;52.504;13.478;2024-01-07T04:59:43;-3273.60;76.80
44121;DHT22;29783;52.504;13.478;2024-01-07T05:02:09;-3273.60;76.60
44121;DHT22;29783;52.504;13.478;2024-01-07T05:04:36;-3273.60;76.80
44121;DHT22;29783;52.504;13.478;2024-01-07T05:07:01;-3273.60;77.00
44121;DHT22;29783;52.504;13.478;2024-01-07T05:09:27;-3273.60;76.80
44121;DHT22;29783;52.504;13.478;2024-01-07T05:11:53;-3273.60;76.90
44121;DHT22;29783;52.504;13.478;2024-01-07T05:14:18;-3273.60;76.70
44121;DHT22;29783;52.504;13.478;2024-01-07T05:16:44;-3273.50;77.10
44121;DHT22;29783;52.504;13.478;2024-01-07T05:19:10;-3273.50;77.30
44121;DHT22;29783;52.504;13.478;2024-01-07T05:21:35;-3273.60;77.10
44121;DHT22;29783;52.504;13.478;2024-01-07T05:24:01;-3273.60;77.10
44121;DHT22;29783;52.504;13.478;2024-01-07T05:26:26;-3273.60;77.30
44121;DHT22;29783;52.504;13.478;2024-01-07T05:28:52;-3273.60;77.20
44121;DHT22;29783;52.504;13.478;2024-01-07T05:31:18;-3273.50;77.50
44121;DHT22;29783;52.504;13.478;2024-01-07T05:33:45;-3273.40;77.70
44121;DHT22;29783;52.504;13.478;2024-01-07T05:36:12;-3273.40;78.00
44121;DHT22;29783;52.504;13.478;2024-01-07T05:38:38;-3273.30;78.50
44121;DHT22;29783;52.504;13.478;2024-01-07T05:41:04;-3273.20;79.00
44121;DHT22;29783;52.504;13.478;2024-01-07T05:43:30;-3273.20;79.40
44121;DHT22;29783;52.504;13.478;2024-01-07T05:45:55;-3273.30;79.30
44121;DHT22;29783;52.504;13.478;2024-01-07T05:48:22;-3273.40;78.80
44121;DHT22;29783;52.504;13.478;2024-01-07T05:50:48;-3273.50;78.80
44121;DHT22;29783;52.504;13.478;2024-01-07T05:53:14;-3273.50;78.30
44121;DHT22;29783;52.504;13.478;2024-01-07T05:55:40;-3273.60;78.20
44121;DHT22;29783;52.504;13.478;2024-01-07T05:58:05;-3273.70;78.10
44121;DHT22;29783;52.504;13.478;2024-01-07T06:00:31;-3273.70;78.30
44121;DHT22;29783;52.504;13.478;2024-01-07T06:02:57;-3273.70;77.80
44121;DHT22;29783;52.504;13.478;2024-01-07T06:05:22;-3273.90;77.50
44121;DHT22;29783;52.504;13.478;2024-01-07T06:07:48;-3274.00;77.00
44121;DHT22;29783;52.504;13.478;2024-01-07T06:10:14;-3274.00;77.10
44121;DHT22;29783;52.504;13.478;2024-01-07T06:12:39;-3274.10;77.00
44121;DHT22;29783;52.504;13.478;2024-01-07T06:15:05;-3274.20;76.90
44121;DHT22;29783;52.504;13.478;2024-01-07T06:17:31;-3274.20;76.70
44121;DHT22;29783;52.504;13.478;2024-01-07T06:19:56;-3274.30;76.10
44121;DHT22;29783;52.504;13.478;2024-01-07T06:22:22;-3274.30;76.20
44121;DHT22;29783;52.504;13.478;2024-01-07T06:24:48;-3274.40;76.10
44121;DHT22;29783;52.504;13.478;2024-01-07T06:27:14;-3274.40;75.70
44121;DHT22;29783;52.504;13.478;2024-01-07T06:29:40;-3274.40;75.60
44121;DHT22;29783;52.504;13.478;2024-01-07T06:32:05;-3274.50;75.50
44121;DHT22;29783;52.504;13.478;2024-01-07T06:34:31;-3274.50;75.70
44121;DHT22;29783;52.504;13.478;2024-01-07T06:36:58;-3274.50;75.80
44121;DHT22;29783;52.504;13.478;2024-01-07T06:39:24;-3274.50;75.40
44121;DHT22;29783;52.504;13.478;2024-01-07T06:41:52;-3274.50;75.30
44121;DHT22;29783;52.504;13.478;2024-01-07T06:44:18;-3274.50;75.40
44121;DHT22;29783;52.504;13.478;2024-01-07T06:46:43;-3274.60;75.60
44121;DHT22;29783;52.504;13.478;2024-01-07T06:49:09;-3274.70;75.20
44121;DHT22;29783;52.504;13.478;2024-01-07T06:51:35;-3274.70;75.40
44121;DHT22;29783;52.504;13.478;2024-01-07T06:54:00;-3274.70;75.00
44121;DHT22;29783;52.504;13.478;2024-01-07T06:56:26;-3274.70;75.50
44121;DHT22;29783;52.504;13.478;2024-01-07T06:58:52;-3274.70;75.10
44121;DHT22;29783;52.504;13.478;2024-01-07T07:01:20;-3274.70;75.20
44121;DHT22;29783;52.504;13.478;2024-01-07T07:03:46;-3274.70;75.10
44121;DHT22;29783;52.504;13.478;2024-01-07T07:06:12;-3274.70;75.40
44121;DHT22;29783;52.504;13.478;2024-01-07T07:08:38;-3274.60;75.00
44121;DHT22;29783;52.504;13.478;2024-01-07T07:11:03;-3274.70;75.20
44121;DHT22;29783;52.504;13.478;2024-01-07T07:13:29;-3274.70;75.30
44121;DHT22;29783;52.504;13.478;2024-01-07T07:15:55;-3274.80;74.60
44121;DHT22;29783;52.504;13.478;2024-01-07T07:18:20;-3274.80;73.90
44121;DHT22;29783;52.504;13.478;2024-01-07T07:20:46;-3274.80;73.90
44121;DHT22;29783;52.504;13.478;2024-01-07T07:23:11;-3274.80;73.50
44121;DHT22;29783;52.504;13.478;2024-01-07T07:25:37;-3274.90;73.00
44121;DHT22;29783;52.504;13.478;2024-01-07T07:28:03;-3274.90;73.30
44121;DHT22;29783;52.504;13.478;2024-01-07T07:30:29;-3274.90;73.50
44121;DHT22;29783;52.504;13.478;2024-01-07T07:32:55;-3274.80;73.60
44121;DHT22;29783;52.504;13.478;2024-01-07T07:35:20;-3274.90;73.90
44121;DHT22;29783;52.504;13.478;2024-01-07T07:37:46;-3274.80;73.20
44121;DHT22;29783;52.504;13.478;2024-01-07T07:40:12;-3274.80;73.70
44121;DHT22;29783;52.504;13.478;2024-01-07T07:42:39;-3274.90;73.30
44121;DHT22;29783;52.504;13.478;2024-01-07T07:45:05;-3275.00;73.60
44121;DHT22;29783;52.504;13.478;2024-01-07T07:47:31;-3275.00;73.30
44121;DHT22;29783;52.504;13.478;2024-01-07T07:49:57;-3274.90;73.50
44121;DHT22;29783;52.504;13.478;2024-01-07T07:52:22;-3275.00;73.60
44121;DHT22;29783;52.504;13.478;2024-01-07T07:54:51;-3275.00;73.80
44121;DHT22;29783;52.504;13.478;2024-01-07T07:57:17;-3275.10;73.60
44121;DHT22;29783;52.504;13.478;2024-01-07T07:59:42;-3275.10;73.50
44121;DHT22;29783;52.504;13.478;2024-01-07T08:02:08;-3275.10;73.30
44121;DHT22;29783;52.504;13.478;2024-01-07T08:04:34;-3275.10;73.80
44121;DHT22;29783;52.504;13.478;2024-01-07T08:06:59;-3275.10;73.80
44121;DHT22;29783;52.504;13.478;2024-01-07T08:09:26;-3275.20;73.20
44121;DHT22;29783;52.504;13.478;2024-01-07T08:11:51;-3275.20;73.30
44121;DHT22;29783;52.504;13.478;2024-01-07T08:14:17;-3275.20;73.30
44121;DHT22;29783;52.504;13.478;2024-01-07T08:16:43;-3275.30;73.50
44121;DHT22;29783;52.504;13.478;2024-01-07T08:19:08;-3275.30;73.40
44121;DHT22;29783;52.504;13.478;2024-01-07T08:21:35;-3275.40;73.10
44121;DHT22;29783;52.504;13.478;2024-01-07T08:24:00;-3275.40;72.80
44121;DHT22;29783;52.504;13.478;2024-01-07T08:26:26;-3275.30;72.80
44121;DHT22;29783;52.504;13.478;2024-01-07T08:28:51;-3275.30;73.00
44121;DHT22;29783;52.504;13.478;2024-01-07T08:31:17;-3275.40;72.90
44121;DHT22;29783;52.504;13.478;2024-01-07T08:33:43;-3275.40;72.70
44121;DHT22;29783;52.504;13.478;2024-01-07T08:36:08;-3275.50;72.70
44121;DHT22;29783;52.504;13.478;2024-01-07T08:38:34;-3275.60;72.50
44121;DHT22;29783;52.504;13.478;2024-01-07T08:41:00;-3275.60;72.40
44121;DHT22;29783;52.504;13.478;2024-01-07T08:43:26;-3275.60;72.20
44121;DHT22;29783;52.504;13.478;2024-01-07T08:45:51;-3275.60;72.60
44121;DHT22;29783;52.504;13.478;2024-01-07T08:48:17;-3275.70;72.40
44121;DHT22;29783;52.504;13.478;2024-01-07T08:50:43;-3275.70;72.40
44121;DHT22;29783;52.504;13.478;2024-01-07T08:53:09;-3275.70;72.40
44121;DHT22;29783;52.504;13.478;2024-01-07T08:55:34;-3275.80;72.20
44121;DHT22;29783;52.504;13.478;2024-01-07T08:58:00;-3275.90;72.70
44121;DHT22;29783;52.504;13.478;2024-01-07T09:00:25;-3275.90;72.50
44121;DHT22;29783;52.504;13.478;2024-01-07T09:02:52;-3275.90;72.00
44121;DHT22;29783;52.504;13.478;2024-01-07T09:05:18;-3275.80;72.00
44121;DHT22;29783;52.504;13.478;2024-01-07T09:07:44;-3275.90;72.30
44121;DHT22;29783;52.504;13.478;2024-01-07T09:10:09;-3276.00;72.40
44121;DHT22;29783;52.504;13.478;2024-01-07T09:12:37;-3276.10;72.30
44121;DHT22;29783;52.504;13.478;2024-01-07T09:15:04;-3276.10;72.30
44121;DHT22;29783;52.504;13.478;2024-01-07T09:17:31;-3276.10;72.20
44121;DHT22;29783;52.504;13.478;2024-01-07T09:19:56;-3276.20;72.30
44121;DHT22;29783;52.504;13.478;2024-01-07T09:22:22;-3276.20;72.10
44121;DHT22;29783;52.504;13.478;2024-01-07T09:24:47;-3276.20;72.10
44121;DHT22;29783;52.504;13.478;2024-01-07T09:27:13;-3276.20;72.10
44121;DHT22;29783;52.504;13.478;2024-01-07T09:29:39;-3276.10;72.20
44121;DHT22;29783;52.504;13.478;2024-01-07T09:32:05;-3276.20;72.30
44121;DHT22;29783;52.504;13.478;2024-01-07T09:34:31;-3276.20;72.80
44121;DHT22;29783;52.504;13.478;2024-01-07T09:36:56;-3276.20;72.90
44121;DHT22;29783;52.504;13.478;2024-01-07T09:39:22;-3276.20;73.00
44121;DHT22;29783;52.504;13.478;2024-01-07T09:41:47;-3276.20;73.10
44121;DHT22;29783;52.504;13.478;2024-01-07T09:44:13;-3276.20;73.50
44121;DHT22;29783;52.504;13.478;2024-01-07T09:46:39;-3276.20;73.90
44121;DHT22;29783;52.504;13.478;2024-01-07T09:49:07;-3276.30;74.00
44121;DHT22;29783;52.504;13.478;2024-01-07T09:51:35;-3276.20;74.20
44121;DHT22;29783;52.504;13.478;2024-01-07T09:54:06;-3276.20;74.40
44121;DHT22;29783;52.504;13.478;2024-01-07T09:56:39;-3276.20;75.00
44121;DHT22;29783;52.504;13.478;2024-01-07T09:59:08;-3276.10;75.20
44121;DHT22;29783;52.504;13.478;2024-01-07T10:01:34;-3276.00;75.60
44121;DHT22;29783;52.504;13.478;2024-01-07T10:04:01;-3276.00;76.00
44121;DHT22;29783;52.504;13.478;2024-01-07T10:06:26;-3276.00;76.20
44121;DHT22;29783;52.504;13.478;2024-01-07T10:08:52;-3275.90;76.40
44121;DHT22;29783;52.504;13.478;2024-01-07T10:11:18;-3276.00;76.60
44121;DHT22;29783;52.504;13.478;2024-01-07T10:13:46;-3276.00;76.60
44121;DHT22;29783;52.504;13.478;2024-01-07T10:16:17;-3276.00;76.60
44121;DHT22;29783;52.504;13.478;2024-01-07T10:18:43;-3276.10;76.70
44121;DHT22;29783;52.504;13.478;2024-01-07T10:21:09;-3276.00;76.70
44121;DHT22;29783;52.504;13.478;2024-01-07T10:23:34;-3276.10;77.10
44121;DHT22;29783;52.504;13.478;2024-01-07T10:26:00;-3276.00;76.90
44121;DHT22;29783;52.504;13.478;2024-01-07T10:28:28;-3276.00;77.00
44121;DHT22;29783;52.504;13.478;2024-01-07T10:30:53;-3276.10;77.10
44121;DHT22;29783;52.504;13.478;2024-01-07T10:33:19;-3276.10;77.20
44121;DHT22;29783;52.504;13.478;2024-01-07T10:35:56;-3276.20;77.20
44121;DHT22;29783;52.504;13.478;2024-01-07T10:38:22;-3276.20;77.00
44121;DHT22;29783;52.504;13.478;2024-01-07T10:40:50;-3276.20;76.90
44121;DHT22;29783;52.504;13.478;2024-01-07T10:43:17;-3276.20;76.90
44121;DHT22;29783;52.504;13.478;2024-01-07T10:45:47;-3276.20;77.10
44121;DHT22;29783;52.504;13.478;2024-01-07T10:48:17;-3276.20;77.20
44121;DHT22;29783;52.504;13.478;2024-01-07T10:50:45;-3276.20;77.30
44121;DHT22;29783;52.504;13.478;2024-01-07T10:53:17;-3276.30;77.80
44121;DHT22;29783;52.504;13.478;2024-01-07T10:55:48;-3276.30;77.50
44121;DHT22;29783;52.504;13.478;2024-01-07T10:58:15;-3276.30;77.40
44121;DHT22;29783;52.504;13.478;2024-01-07T11:00:42;-3276.40;77.60
44121;DHT22;29783;52.504;13.478;2024-01-07T11:03:18;-3276.50;77.40
44121;DHT22;29783;52.504;13.478;2024-01-07T11:05:52;-3276.60;77.20
44121;DHT22;29783;52.504;13.478;2024-01-07T11:08:25;-3276.70;77.10
44121;DHT22;29783;52.504;13.478;2024-01-07T11:11:15;-3276.60;76.90
44121;DHT22;29783;52.504;13.478;2024-01-07T11:13:41;-3276.50;77.30
44121;DHT22;29783;52.504;13.478;2024-01-07T11:16:10;-3276.60;77.10
44121;DHT22;29783;52.504;13.478;2024-01-07T11:18:40;-3276.50;77.20
44121;DHT22;29783;52.504;13.478;2024-01-07T11:21:06;-3276.50;77.40
44121;DHT22;29783;52.504;13.478;2024-01-07T11:23:33;-3276.50;77.60
44121;DHT22;29783;52.504;13.478;2024-01-07T11:26:03;-3276.50;77.80
44121;DHT22;29783;52.504;13.478;2024-01-07T11:28:46;-3276.50;77.90
44121;DHT22;29783;52.504;13.478;2024-01-07T11:31:13;-3276.60;78.20
44121;DHT22;29783;52.504;13.478;2024-01-07T11:33:42;-3276.70;78.00
44121;DHT22;29783;52.504;13.478;2024-01-07T11:36:07;-3276.70;77.60
44121;DHT22;29783;52.504;13.478;2024-01-07T11:38:36;-3276.70;77.70
44121;DHT22;29783;52.504;13.478;2024-01-07T11:41:05;-3276.70;77.90
44121;DHT22;29783;52.504;13.478;2024-01-07T11:43:32;-3276.70;78.00
44121;DHT22;29783;52.504;13.478;2024-01-07T11:45:59;-3276.70;78.00
44121;DHT22;29783;52.504;13.478;2024-01-07T11:48:24;-3276.70;78.20
44121;DHT22;29783;52.504;13.478;2024-01-07T11:50:50;-3276.70;78.40
44121;DHT22;29783;52.504;13.478;2024-01-07T11:53:16;-3276.70;78.30
44121;DHT22;29783;52.504;13.478;2024-01-07T11:55:42;-3276.70;78.60
44121;DHT22;29783;52.504;13.478;2024-01-07T11:58:08;-3276.60;78.80
44121;DHT22;29783;52.504;13.478;2024-01-07T12:00:34;-3276.60;79.10
44121;DHT22;29783;52.504;13.478;2024-01-07T12:03:00;-3276.70;79.20
44121;DHT22;29783;52.504;13.478;2024-01-07T12:05:27;-3276.60;79.30
44121;DHT22;29783;52.504;13.478;2024-01-07T12:07:53;-3276.60;79.50
44121;DHT22;29783;52.504;13.478;2024-01-07T12:10:19;-3276.70;79.50
44121;DHT22;29783;52.504;13.478;2024-01-07T12:12:45;-3276.70;79.60
44121;DHT22;29783;52.504;13.478;2024-01-07T12:15:12;-3276.60;79.60
44121;DHT22;29783;52.504;13.478;2024-01-07T12:17:39;-3276.60;79.80
44121;DHT22;29783;52.504;13.478;2024-01-07T12:20:05;-3276.60;79.70
44121;DHT22;29783;52.504;13.478;2024-01-07T12:22:32;-3276.60;79.90
44121;DHT22;29783;52.504;13.478;2024-01-07T12:25:05;-3276.60;80.10
44121;DHT22;29783;52.504;13.478;2024-01-07T12:27:31;-3276.70;80.10
44121;DHT22;29783;52.504;13.478;2024-01-07T12:29:58;-3276.70;80.20
44121;DHT22;29783;52.504;13.478;2024-01-07T12:32:27;-3276.70;80.40
44121;DHT22;29783;52.504;13.478;2024-01-07T12:34:52;-3276.70;80.20
44121;DHT22;29783;52.504;13.478;2024-01-07T12:37:18;0.00;80.10
44121;DHT22;29783;52.504;13.478;2024-01-07T12:39:44;0.00;80.10
44121;DHT22;29783;52.504;13.478;2024-01-07T12:42:09;0.00;80.10
44121;DHT22;29783;52.504;13.478;2024-01-07T12:44:38;0.00;80.10
44121;DHT22;29783;52.504;13.478;2024-01-07T12:47:04;0.00;80.20
44121;DHT22;29783;52.504;13.478;2024-01-07T12:49:29;0.00;80.50
44121;DHT22;29783;52.504;13.478;2024-01-07T12:51:55;0.00;80.30
44121;DHT22;29783;52.504;13.478;2024-01-07T12:54:21;0.00;80.50
44121;DHT22;29783;52.504;13.478;2024-01-07T12:56:48;-3276.70;80.80
44121;DHT22;29783;52.504;13.478;2024-01-07T12:59:14;0.00;81.00
44121;DHT22;29783;52.504;13.478;2024-01-07T13:01:39;0.00;81.00
44121;DHT22;29783;52.504;13.478;2024-01-07T13:04:05;0.00;81.40
44121;DHT22;29783;52.504;13.478;2024-01-07T13:06:31;-3276.70;81.60
44121;DHT22;29783;52.504;13.478;2024-01-07T13:08:56;-3276.70;81.80
44121;DHT22;29783;52.504;13.478;2024-01-07T13:11:22;0.00;82.20
44121;DHT22;29783;52.504;13.478;2024-01-07T13:13:48;0.00;82.20
44121;DHT22;29783;52.504;13.478;2024-01-07T13:16:13;0.00;82.30
44121;DHT22;29783;52.504;13.478;2024-01-07T13:18:39;0.00;82.50
44121;DHT22;29783;52.504;13.478;2024-01-07T13:21:04;0.00;82.50
44121;DHT22;29783;52.504;13.478;2024-01-07T13:23:32;0.00;82.80
44121;DHT22;29783;52.504;13.478;2024-01-07T13:25:58;0.00;83.10
44121;DHT22;29783;52.504;13.478;2024-01-07T13:28:24;0.00;83.10
44121;DHT22;29783;52.504;13.478;2024-01-07T13:30:49;0.00;83.30
44121;DHT22;29783;52.504;13.478;2024-01-07T13:33:15;0.00;83.40
44121;DHT22;29783;52.504;13.478;2024-01-07T13:35:43;0.00;83.50
44121;DHT22;29783;52.504;13.478;2024-01-07T13:38:09;0.00;83.50
44121;DHT22;29783;52.504;13.478;2024-01-07T13:40:35;0.00;83.60
44121;DHT22;29783;52.504;13.478;2024-01-07T13:43:01;0.00;83.60
44121;DHT22;29783;52.504;13.478;2024-01-07T13:45:28;0.00;84.00
44121;DHT22;29783;52.504;13.478;2024-01-07T13:47:54;0.00;84.20
44121;DHT22;29783;52.504;13.478;2024-01-07T13:50:20;0.00;84.20
44121;DHT22;29783;52.504;13.478;2024-01-07T13:52:45;0.00;84.10
44121;DHT22;29783;52.504;13.478;2024-01-07T13:55:11;0.00;84.00
44121;DHT22;29783;52.504;13.478;2024-01-07T13:57:38;0.00;83.90
44121;DHT22;29783;52.504;13.478;2024-01-07T14:00:04;0.00;83.90
44121;DHT22;29783;52.504;13.478;2024-01-07T14:02:35;0.00;83.60
44121;DHT22;29783;52.504;13.478;2024-01-07T14:05:04;0.00;83.50
44121;DHT22;29783;52.504;13.478;2024-01-07T14:07:31;0.00;83.60
44121;DHT22;29783;52.504;13.478;2024-01-07T14:09:58;0.00;83.80
44121;DHT22;29783;52.504;13.478;2024-01-07T14:12:24;0.00;83.60
44121;DHT22;29783;52.504;13.478;2024-01-07T14:14:49;0.00;83.60
44121;DHT22;29783;52.504;13.478;2024-01-07T14:17:16;0.00;83.70
44121;DHT22;29783;52.504;13.478;2024-01-07T14:19:41;0.00;83.50
44121;DHT22;29783;52.504;13.478;2024-01-07T14:22:09;0.00;83.80
44121;DHT22;29783;52.504;13.478;2024-01-07T14:24:34;0.00;83.80
44121;DHT22;29783;52.504;13.478;2024-01-07T14:27:00;0.00;83.70
44121;DHT22;29783;52.504;13.478;2024-01-07T14:29:25;0.00;83.70
44121;DHT22;29783;52.504;13.478;2024-01-07T14:31:51;0.00;83.60
44121;DHT22;29783;52.504;13.478;2024-01-07T14:34:17;0.00;83.60